createdAt,value
2019-05-03T00:00:43.617Z,1.90
2019-05-03T00:03:13.820Z,1.87
2019-05-03T00:05:43.583Z,1.63
2019-05-03T00:08:12.624Z,1.33
2019-05-03T00:10:42.525Z,1.30
2019-05-03T00:13:12.556Z,1.23
2019-05-03T00:15:42.955Z,1.37
2019-05-03T00:18:11.742Z,1.50
2019-05-03T00:20:41.991Z,1.20
2019-05-03T00:23:12.001Z,1.57
2019-05-03T00:25:41.700Z,1.43
2019-05-03T00:28:10.133Z,1.20
2019-05-03T00:30:38.319Z,1.10
2019-05-03T00:33:06.864Z,1.27
2019-05-03T00:35:52.915Z,1.30
2019-05-03T00:38:21.797Z,1.20
2019-05-03T00:40:50.111Z,1.17
2019-05-03T00:43:18.900Z,1.60
2019-05-03T00:45:47.061Z,1.20
2019-05-03T00:48:15.441Z,1.20
2019-05-03T00:50:43.893Z,1.47
2019-05-03T00:53:12.059Z,1.43
2019-05-03T00:55:41.886Z,1.40
2019-05-03T00:58:11.779Z,1.47
2019-05-03T01:00:41.766Z,1.40
2019-05-03T01:03:10.143Z,1.33
2019-05-03T01:05:38.289Z,1.60
2019-05-03T01:08:06.455Z,1.47
2019-05-03T01:10:34.944Z,1.40
2019-05-03T01:13:03.152Z,1.63
2019-05-03T01:15:32.954Z,1.30
2019-05-03T01:18:02.987Z,1.67
2019-05-03T01:20:31.992Z,1.13
2019-05-03T01:23:01.954Z,1.10
2019-05-03T01:25:35.117Z,1.20
2019-05-03T01:28:01.550Z,1.20
2019-05-03T01:30:31.943Z,1.90
2019-05-03T01:33:00.008Z,1.50
2019-05-03T01:35:28.150Z,1.60
2019-05-03T01:37:56.327Z,1.40
2019-05-03T01:40:24.482Z,1.70
2019-05-03T01:42:52.610Z,1.77
2019-05-03T01:45:22.614Z,1.70
2019-05-03T01:48:09.101Z,2.17
2019-05-03T01:50:53.920Z,1.57
2019-05-03T01:53:26.934Z,1.67
2019-05-03T01:55:55.123Z,1.97
2019-05-03T01:58:23.335Z,1.83
2019-05-03T02:01:05.785Z,1.87
2019-05-03T02:03:41.873Z,2.07
2019-05-03T02:06:11.841Z,1.87
2019-05-03T02:08:41.826Z,1.77
2019-05-03T02:11:11.641Z,1.70
2019-05-03T02:13:39.946Z,2.10
2019-05-03T02:16:08.091Z,1.70
2019-05-03T02:18:36.233Z,1.73
2019-05-03T02:21:04.394Z,2.03
2019-05-03T02:23:32.811Z,2.00
2019-05-03T02:26:02.916Z,2.23
2019-05-03T02:28:32.543Z,1.60
2019-05-03T02:31:03.478Z,2.37
2019-05-03T02:33:32.927Z,1.93
2019-05-03T02:36:03.752Z,1.70
2019-05-03T02:38:30.753Z,1.80
2019-05-03T02:40:58.899Z,1.77
2019-05-03T02:43:28.713Z,1.90
2019-05-03T02:46:10.594Z,2.07
2019-05-03T02:48:46.757Z,1.70
2019-05-03T02:51:15.722Z,2.10
2019-05-03T02:53:45.766Z,1.80
2019-05-03T02:56:21.961Z,1.60
2019-05-03T02:58:46.079Z,2.00
2019-05-03T03:01:16.324Z,1.87
2019-05-03T03:03:45.690Z,1.90
2019-05-03T03:06:15.757Z,2.00
2019-05-03T03:08:45.595Z,1.70
2019-05-03T03:11:15.892Z,1.60
2019-05-03T03:13:45.849Z,1.37
2019-05-03T03:16:16.323Z,1.50
2019-05-03T03:18:45.615Z,1.10
2019-05-03T03:21:16.365Z,1.47
2019-05-03T03:23:49.308Z,1.40
2019-05-03T03:26:33.341Z,1.60
2019-05-03T03:28:50.642Z,1.70
2019-05-03T03:31:29.363Z,2.00
2019-05-03T03:33:59.825Z,2.17
2019-05-03T03:36:44.595Z,1.83
2019-05-03T03:38:58.237Z,1.60
2019-05-03T03:41:26.840Z,1.50
2019-05-03T03:43:56.822Z,1.70
2019-05-03T03:46:26.500Z,1.53
2019-05-03T03:48:55.951Z,2.13
2019-05-03T03:51:26.313Z,2.40
2019-05-03T03:53:55.636Z,1.57
2019-05-03T03:56:25.784Z,2.20
2019-05-03T03:58:55.594Z,1.87
2019-05-03T04:01:26.391Z,2.07
2019-05-03T04:03:56.050Z,2.30
2019-05-03T04:06:26.913Z,2.40
2019-05-03T04:08:56.121Z,2.60
2019-05-03T04:11:25.904Z,2.40
2019-05-03T04:13:55.998Z,2.60
2019-05-03T04:16:26.272Z,2.33
2019-05-03T04:19:05.771Z,3.13
2019-05-03T04:21:35.903Z,3.70
2019-05-03T04:24:05.997Z,3.90
2019-05-03T04:26:35.789Z,4.03
2019-05-03T04:29:05.399Z,4.60
2019-05-03T04:31:36.514Z,3.83
2019-05-03T04:34:05.097Z,3.43
2019-05-03T04:36:35.804Z,4.00
2019-05-03T04:39:05.436Z,4.87
2019-05-03T04:41:35.677Z,4.70
2019-05-03T04:44:06.301Z,5.20
2019-05-03T04:46:35.887Z,5.23
2019-05-03T04:49:05.727Z,4.70
2019-05-03T04:51:35.022Z,5.20
2019-05-03T04:54:10.873Z,4.53
2019-05-03T04:56:39.030Z,5.57
2019-05-03T04:59:07.439Z,6.07
2019-05-03T05:01:35.586Z,6.30
2019-05-03T05:04:05.389Z,5.23
2019-05-03T05:06:35.023Z,5.80
2019-05-03T05:09:05.011Z,5.20
2019-05-03T05:11:35.091Z,5.50
2019-05-03T05:14:06.213Z,4.17
2019-05-03T05:16:35.398Z,5.60
2019-05-03T05:19:10.857Z,5.20
2019-05-03T05:21:40.640Z,5.63
2019-05-03T05:24:08.781Z,5.83
2019-05-03T05:26:47.537Z,6.27
2019-05-03T05:29:26.606Z,6.47
2019-05-03T05:31:54.977Z,6.03
2019-05-03T05:34:24.571Z,6.93
2019-05-03T05:36:52.847Z,5.37
2019-05-03T05:39:20.998Z,5.90
2019-05-03T05:41:49.143Z,6.90
2019-05-03T05:44:17.271Z,6.63
2019-05-03T05:46:50.093Z,7.80
2019-05-03T05:49:36.334Z,8.13
2019-05-03T05:52:04.970Z,8.50
2019-05-03T05:54:35.080Z,7.87
2019-05-03T05:57:21.760Z,8.20
2019-05-03T05:59:57.350Z,8.67
2019-05-03T06:02:25.630Z,9.03
2019-05-03T06:04:54.407Z,9.63
2019-05-03T06:07:41.420Z,9.23
2019-05-03T06:10:17.214Z,9.90
2019-05-03T06:12:49.959Z,9.60
2019-05-03T06:15:35.071Z,10.17
2019-05-03T06:18:10.409Z,10.43
2019-05-03T06:20:45.073Z,11.47
2019-05-03T06:23:14.865Z,11.33
2019-05-03T06:25:45.244Z,12.20
2019-05-03T06:28:20.499Z,12.60
2019-05-03T06:30:46.968Z,15.30
2019-05-03T06:33:15.188Z,14.17
2019-05-03T06:35:44.579Z,12.87
2019-05-03T06:38:12.913Z,12.40
2019-05-03T06:40:41.058Z,12.47
2019-05-03T06:43:12.800Z,12.17
2019-05-03T06:45:41.085Z,13.40
2019-05-03T06:48:09.222Z,14.00
2019-05-03T06:50:37.357Z,14.10
2019-05-03T06:53:12.309Z,14.00
2019-05-03T06:55:39.854Z,13.80
2019-05-03T06:58:05.510Z,12.10
2019-05-03T07:00:37.986Z,12.27
2019-05-03T07:03:10.530Z,12.03
2019-05-03T07:05:49.089Z,11.53
2019-05-03T07:08:35.787Z,12.87
2019-05-03T07:11:05.776Z,13.20
2019-05-03T07:13:34.651Z,11.70
2019-05-03T07:16:04.657Z,12.90
2019-05-03T07:18:34.987Z,13.10
2019-05-03T07:21:04.721Z,12.60
2019-05-03T07:23:34.745Z,12.90
2019-05-03T07:26:02.965Z,13.13
2019-05-03T07:28:43.244Z,12.00
2019-05-03T07:31:00.981Z,16.23
2019-05-03T07:33:30.902Z,12.43
2019-05-03T07:35:59.086Z,14.60
2019-05-03T07:38:27.511Z,13.97
2019-05-03T07:40:55.990Z,15.13
2019-05-03T07:43:24.557Z,14.73
2019-05-03T07:45:55.093Z,13.67
2019-05-03T07:48:25.285Z,15.80
2019-05-03T07:50:54.668Z,14.80
2019-05-03T07:53:25.031Z,15.47
2019-05-03T07:56:00.300Z,14.90
2019-05-03T07:58:29.725Z,14.43
2019-05-03T08:01:06.451Z,14.20
2019-05-03T08:03:29.426Z,13.20
2019-05-03T08:05:57.821Z,14.47
2019-05-03T08:08:26.222Z,13.50
2019-05-03T08:10:55.011Z,13.13
2019-05-03T08:13:25.344Z,13.23
2019-05-03T08:15:55.771Z,12.10
2019-05-03T08:18:25.720Z,12.43
2019-05-03T08:20:55.428Z,11.37
2019-05-03T08:23:29.751Z,11.30
2019-05-03T08:25:55.650Z,11.40
2019-05-03T08:28:24.592Z,10.47
2019-05-03T08:30:54.785Z,11.33
2019-05-03T08:33:40.034Z,10.30
2019-05-03T08:36:08.215Z,9.90
2019-05-03T08:38:36.370Z,10.50
2019-05-03T08:41:06.148Z,9.87
2019-05-03T08:43:35.792Z,10.93
2019-05-03T08:46:04.586Z,10.17
2019-05-03T08:48:35.259Z,10.47
2019-05-03T08:51:04.510Z,10.90
2019-05-03T08:53:35.622Z,9.40
2019-05-03T08:56:05.109Z,8.53
2019-05-03T08:58:34.809Z,9.23
2019-05-03T09:01:05.535Z,9.10
2019-05-03T09:03:36.350Z,9.03
2019-05-03T09:06:04.669Z,7.93
2019-05-03T09:08:35.249Z,7.97
2019-05-03T09:11:10.676Z,6.90
2019-05-03T09:13:52.823Z,6.17
2019-05-03T09:16:21.047Z,6.40
2019-05-03T09:18:49.273Z,6.07
2019-05-03T09:21:17.403Z,5.90
2019-05-03T09:23:45.814Z,5.30
2019-05-03T09:26:15.053Z,4.60
2019-05-03T09:28:45.388Z,3.97
2019-05-03T09:31:15.537Z,3.20
2019-05-03T09:33:45.165Z,3.50
2019-05-03T09:36:14.689Z,2.70
2019-05-03T09:38:45.524Z,3.57
2019-05-03T09:41:15.015Z,2.97
2019-05-03T09:43:45.081Z,3.03
2019-05-03T09:46:14.529Z,3.00
2019-05-03T09:48:45.137Z,2.97
2019-05-03T09:51:14.697Z,2.40
2019-05-03T09:53:47.528Z,4.10
2019-05-03T09:56:15.946Z,3.13
2019-05-03T09:58:46.099Z,2.20
2019-05-03T10:01:15.126Z,2.00
2019-05-03T10:03:45.166Z,1.77
2019-05-03T10:06:15.416Z,1.50
2019-05-03T10:08:45.360Z,1.63
2019-05-03T10:11:15.505Z,1.90
2019-05-03T10:13:43.096Z,1.40
2019-05-03T10:16:11.281Z,2.60
2019-05-03T10:18:39.444Z,3.87
2019-05-03T10:21:07.826Z,3.97
2019-05-03T10:23:37.656Z,4.80
2019-05-03T10:26:05.862Z,4.13
2019-05-03T10:28:34.063Z,3.73
2019-05-03T10:31:05.566Z,3.00
2019-05-03T10:33:46.085Z,2.93
2019-05-03T10:36:15.382Z,3.50
2019-05-03T10:38:45.927Z,2.60
2019-05-03T10:41:14.136Z,2.10
2019-05-03T10:43:44.923Z,2.30
2019-05-03T10:46:15.714Z,2.20
2019-05-03T10:48:45.138Z,2.40
2019-05-03T10:51:15.360Z,2.70
2019-05-03T10:53:45.512Z,1.90
2019-05-03T10:56:24.546Z,2.40
2019-05-03T10:58:54.954Z,1.87
2019-05-03T11:01:30.475Z,2.17
2019-05-03T11:03:58.612Z,1.80
2019-05-03T11:06:26.758Z,2.07
2019-05-03T11:08:54.991Z,2.00
2019-05-03T11:11:23.206Z,1.60
2019-05-03T11:13:51.398Z,1.33
2019-05-03T11:16:19.595Z,1.10
2019-05-03T11:18:47.728Z,1.27
2019-05-03T11:21:27.951Z,0.70
2019-05-03T11:23:45.899Z,0.63
2019-05-03T11:26:14.033Z,0.60
2019-05-03T11:28:42.354Z,0.80
2019-05-03T11:31:28.522Z,0.50
2019-05-03T11:33:58.297Z,0.80
2019-05-03T11:36:28.078Z,1.00
2019-05-03T11:38:56.209Z,0.93
2019-05-03T11:41:32.155Z,1.03
2019-05-03T11:43:57.224Z,1.03
2019-05-03T11:46:25.824Z,1.20
2019-05-03T11:48:54.852Z,1.20
2019-05-03T11:51:24.876Z,1.70
2019-05-03T11:53:52.921Z,1.67
2019-05-03T11:56:22.404Z,1.23
2019-05-03T11:58:50.606Z,1.10
2019-05-03T12:01:20.622Z,1.60
2019-05-03T12:03:49.546Z,1.10
2019-05-03T12:06:17.678Z,1.10
2019-05-03T12:08:45.820Z,0.93
2019-05-03T12:11:15.068Z,1.33
2019-05-03T12:13:45.436Z,1.23
2019-05-03T12:16:19.508Z,1.53
2019-05-03T12:18:52.001Z,1.63
2019-05-03T12:21:16.820Z,1.90
2019-05-03T12:23:45.710Z,1.80
2019-05-03T12:26:14.645Z,2.00
2019-05-03T12:28:44.856Z,2.50
2019-05-03T12:31:29.565Z,2.90
2019-05-03T12:33:45.778Z,2.83
2019-05-03T12:36:15.463Z,3.10
2019-05-03T12:38:43.823Z,3.30
2019-05-03T12:41:12.303Z,4.00
2019-05-03T12:43:40.487Z,4.20
2019-05-03T12:46:08.641Z,3.80
2019-05-03T12:48:36.884Z,3.57
2019-05-03T12:51:06.929Z,3.37
2019-05-03T12:53:35.541Z,2.40
2019-05-03T12:56:11.065Z,3.93
2019-05-03T12:58:51.547Z,3.30
2019-05-03T13:01:24.956Z,3.77
2019-05-03T13:03:55.452Z,3.03
2019-05-03T13:06:25.403Z,1.97
2019-05-03T13:09:06.818Z,1.80
2019-05-03T13:11:36.762Z,1.43
2019-05-03T13:14:04.938Z,1.60
2019-05-03T13:16:35.242Z,1.23
2019-05-03T13:19:03.211Z,1.07
2019-05-03T13:21:31.599Z,1.10
2019-05-03T13:23:59.763Z,1.30
2019-05-03T13:26:27.954Z,1.20
2019-05-03T13:28:59.473Z,1.83
2019-05-03T13:31:26.228Z,1.83
2019-05-03T13:33:54.943Z,2.07
2019-05-03T13:36:25.250Z,1.90
2019-05-03T13:38:55.859Z,1.53
2019-05-03T13:41:25.026Z,1.90
2019-05-03T13:43:54.894Z,2.03
2019-05-03T13:46:24.624Z,2.00
2019-05-03T13:48:55.326Z,1.63
2019-05-03T13:51:25.301Z,1.30
2019-05-03T13:53:55.118Z,2.17
2019-05-03T13:56:24.656Z,2.30
2019-05-03T13:58:55.046Z,3.37
2019-05-03T14:01:25.123Z,3.73
2019-05-03T14:03:54.590Z,3.40
2019-05-03T14:06:24.597Z,2.90
2019-05-03T14:08:54.806Z,2.77
2019-05-03T14:11:25.264Z,2.63
2019-05-03T14:13:55.061Z,2.80
2019-05-03T14:16:23.023Z,2.80
2019-05-03T14:18:54.767Z,3.00
2019-05-03T14:21:30.770Z,3.70
2019-05-03T14:24:11.994Z,5.17
2019-05-03T14:26:40.781Z,5.23
2019-05-03T14:29:09.220Z,5.77
2019-05-03T14:31:37.436Z,5.73
2019-05-03T14:34:06.202Z,5.57
2019-05-03T14:36:35.866Z,6.03
2019-05-03T14:39:09.508Z,5.57
2019-05-03T14:41:36.701Z,6.23
2019-05-03T14:44:05.494Z,5.10
2019-05-03T14:46:36.164Z,6.03
2019-05-03T14:49:05.978Z,5.20
2019-05-03T14:51:35.038Z,6.43
2019-05-03T14:54:05.342Z,7.20
2019-05-03T14:56:38.007Z,5.70
2019-05-03T14:59:26.128Z,6.80
2019-05-03T15:02:05.124Z,6.37
2019-05-03T15:04:32.011Z,5.50
2019-05-03T15:07:00.237Z,5.10
2019-05-03T15:09:28.445Z,7.27
2019-05-03T15:11:56.727Z,7.70
2019-05-03T15:14:25.192Z,4.83
2019-05-03T15:16:55.588Z,5.87
2019-05-03T15:19:25.420Z,6.10
2019-05-03T15:21:54.756Z,6.30
2019-05-03T15:24:25.067Z,6.57
2019-05-03T15:26:52.925Z,6.13
2019-05-03T15:29:21.119Z,5.80
2019-05-03T15:31:49.828Z,6.07
2019-05-03T15:34:18.185Z,6.30
2019-05-03T15:36:46.875Z,6.07
2019-05-03T15:39:15.408Z,6.33
2019-05-03T15:41:44.927Z,5.50
2019-05-03T15:44:27.262Z,5.90
2019-05-03T15:47:10.340Z,6.43
2019-05-03T15:49:39.068Z,6.20
2019-05-03T15:52:07.217Z,6.63
2019-05-03T15:54:37.350Z,6.60
2019-05-03T15:57:05.503Z,5.90
2019-05-03T15:59:33.819Z,6.80
2019-05-03T16:02:01.980Z,6.67
2019-05-03T16:04:30.375Z,6.57
2019-05-03T16:06:58.602Z,5.90
2019-05-03T16:09:26.736Z,6.83
2019-05-03T16:11:55.630Z,7.40
2019-05-03T16:14:24.290Z,6.03
2019-05-03T16:16:52.516Z,6.20
2019-05-03T16:19:20.659Z,6.00
2019-05-03T16:21:48.835Z,6.10
2019-05-03T16:24:17.378Z,7.13
2019-05-03T16:27:05.022Z,6.70
2019-05-03T16:29:33.282Z,5.87
2019-05-03T16:32:01.446Z,7.97
2019-05-03T16:34:29.574Z,6.90
2019-05-03T16:36:57.743Z,6.80
2019-05-03T16:39:26.927Z,6.63
2019-05-03T16:41:55.546Z,7.67
2019-05-03T16:44:24.375Z,5.80
2019-05-03T16:46:52.825Z,7.43
2019-05-03T16:49:20.966Z,7.07
2019-05-03T16:51:49.102Z,9.63
2019-05-03T16:54:17.258Z,8.63
2019-05-03T16:56:45.660Z,7.60
2019-05-03T16:59:14.785Z,7.30
2019-05-03T17:01:44.475Z,9.83
2019-05-03T17:04:26.583Z,10.80
2019-05-03T17:06:59.119Z,7.83
2019-05-03T17:09:38.025Z,7.87
2019-05-03T17:12:07.997Z,6.23
2019-05-03T17:14:36.241Z,6.10
2019-05-03T17:17:04.674Z,6.40
2019-05-03T17:19:35.101Z,6.93
2019-05-03T17:22:05.468Z,7.23
2019-05-03T17:24:35.167Z,7.57
2019-05-03T17:27:03.029Z,7.60
2019-05-03T17:29:31.272Z,7.50
2019-05-03T17:31:59.433Z,7.77
2019-05-03T17:34:27.995Z,8.50
2019-05-03T17:36:56.217Z,7.50
2019-05-03T17:39:45.545Z,8.13
2019-05-03T17:42:31.667Z,8.63
2019-05-03T17:44:59.961Z,9.40
2019-05-03T17:47:28.110Z,8.00
2019-05-03T17:49:57.416Z,8.13
2019-05-03T17:52:42.497Z,8.27
2019-05-03T17:55:15.350Z,8.37
2019-05-03T17:57:47.979Z,9.20
2019-05-03T18:00:20.669Z,9.70
2019-05-03T18:02:49.487Z,9.17
2019-05-03T18:05:35.589Z,8.33
2019-05-03T18:08:14.234Z,9.00
2019-05-03T18:10:44.031Z,9.50
2019-05-03T18:13:12.179Z,10.00
2019-05-03T18:15:40.334Z,8.30
2019-05-03T18:18:08.838Z,9.30
2019-05-03T18:20:37.249Z,9.73
2019-05-03T18:23:05.436Z,9.80
2019-05-03T18:25:35.347Z,9.10
2019-05-03T18:28:24.917Z,9.23
2019-05-03T18:30:54.694Z,10.00
2019-05-03T18:33:24.732Z,10.13
2019-05-03T18:35:54.991Z,9.83
2019-05-03T18:38:25.287Z,8.40
2019-05-03T18:40:55.230Z,9.40
2019-05-03T18:43:34.641Z,9.73
2019-05-03T18:46:21.214Z,10.43
2019-05-03T18:48:49.600Z,9.70
2019-05-03T18:51:18.233Z,9.97
2019-05-03T18:53:46.578Z,9.90
2019-05-03T18:56:14.841Z,10.83
2019-05-03T18:58:44.868Z,9.93
2019-05-03T19:01:14.802Z,10.70
2019-05-03T19:03:45.224Z,10.30
2019-05-03T19:06:13.575Z,8.87
2019-05-03T19:08:44.688Z,9.90
2019-05-03T19:11:30.750Z,10.30
2019-05-03T19:14:01.439Z,11.17
2019-05-03T19:16:31.326Z,10.57
2019-05-03T19:18:59.564Z,13.30
2019-05-03T19:21:27.813Z,12.60
2019-05-03T19:23:56.051Z,12.83
2019-05-03T19:26:24.858Z,11.80
2019-05-03T19:28:54.878Z,12.03
2019-05-03T19:31:25.112Z,11.50
2019-05-03T19:33:55.075Z,10.50
2019-05-03T19:36:23.609Z,10.30
2019-05-03T19:38:51.806Z,10.40
2019-05-03T19:41:20.071Z,10.07
2019-05-03T19:43:48.227Z,10.33
2019-05-03T19:46:16.700Z,10.40
2019-05-03T19:48:45.527Z,11.33
2019-05-03T19:51:13.988Z,10.13
2019-05-03T19:53:46.700Z,9.53
2019-05-03T19:56:15.198Z,10.20
2019-05-03T19:58:44.189Z,8.30
2019-05-03T20:01:27.429Z,9.10
2019-05-03T20:04:09.254Z,9.50
2019-05-03T20:06:48.095Z,10.77
2019-05-03T20:09:17.912Z,10.20
2019-05-03T20:11:46.380Z,10.50
2019-05-03T20:14:17.160Z,9.90
2019-05-03T20:16:45.377Z,11.00
2019-05-03T20:19:18.946Z,10.37
2019-05-03T20:21:43.495Z,10.43
2019-05-03T20:24:11.639Z,9.47
2019-05-03T20:26:39.789Z,10.77
2019-05-03T20:29:07.941Z,9.97
2019-05-03T20:31:36.517Z,10.73
2019-05-03T20:34:05.366Z,9.47
2019-05-03T20:36:35.073Z,8.50
2019-05-03T20:39:05.449Z,10.40
2019-05-03T20:41:35.003Z,10.20
2019-05-03T20:44:08.018Z,10.47
2019-05-03T20:46:47.238Z,8.20
2019-05-03T20:49:16.482Z,8.77
2019-05-03T20:51:45.029Z,9.10
2019-05-03T20:54:15.281Z,9.93
2019-05-03T20:56:45.626Z,8.83
2019-05-03T20:59:14.744Z,8.73
2019-05-03T21:01:45.158Z,9.50
2019-05-03T21:04:13.002Z,9.17
2019-05-03T21:06:41.149Z,9.40
2019-05-03T21:09:09.374Z,9.67
2019-05-03T21:11:37.567Z,9.40
2019-05-03T21:14:05.768Z,9.53
2019-05-03T21:16:41.771Z,8.90
2019-05-03T21:19:15.878Z,9.70
2019-05-03T21:21:45.858Z,9.30
2019-05-03T21:24:23.612Z,10.00
2019-05-03T21:26:51.510Z,9.63
2019-05-03T21:29:19.910Z,10.80
2019-05-03T21:31:48.127Z,9.90
2019-05-03T21:34:16.554Z,10.47
2019-05-03T21:36:45.313Z,10.40
2019-05-03T21:39:14.630Z,9.30
2019-05-03T21:41:44.939Z,11.37
2019-05-03T21:44:15.466Z,11.47
2019-05-03T21:46:45.671Z,11.97
2019-05-03T21:49:15.545Z,9.77
2019-05-03T21:51:45.002Z,10.77
2019-05-03T21:54:15.249Z,10.10
2019-05-03T21:56:44.726Z,10.23
2019-05-03T21:59:13.178Z,9.50
2019-05-03T22:01:42.534Z,10.53
2019-05-03T22:04:10.911Z,10.33
2019-05-03T22:06:39.648Z,9.80
2019-05-03T22:09:08.171Z,10.30
2019-05-03T22:11:36.327Z,9.90
2019-05-03T22:14:06.400Z,9.87
2019-05-03T22:16:45.032Z,9.47
2019-05-03T22:19:16.314Z,9.83
2019-05-03T22:21:45.241Z,10.70
2019-05-03T22:24:15.243Z,9.43
2019-05-03T22:26:54.191Z,10.87
2019-05-03T22:29:22.418Z,10.23
2019-05-03T22:31:50.550Z,8.73
2019-05-03T22:34:18.697Z,10.73
2019-05-03T22:36:46.839Z,10.87
2019-05-03T22:39:15.782Z,10.60
2019-05-03T22:41:44.371Z,12.33
2019-05-03T22:44:16.822Z,12.33
2019-05-03T22:46:44.615Z,12.80
2019-05-03T22:49:12.964Z,12.50
2019-05-03T22:51:41.215Z,12.80
2019-05-03T22:54:09.436Z,12.23
2019-05-03T22:56:37.590Z,13.10
2019-05-03T22:59:05.998Z,12.80
2019-05-03T23:01:35.285Z,11.57
2019-05-03T23:04:05.453Z,11.20
2019-05-03T23:06:33.749Z,11.80
2019-05-03T23:09:01.927Z,13.37
2019-05-03T23:11:30.111Z,15.03
2019-05-03T23:14:05.027Z,13.90
2019-05-03T23:16:35.557Z,12.47
2019-05-03T23:19:05.548Z,12.87
2019-05-03T23:21:38.603Z,14.50
2019-05-03T23:24:06.763Z,13.37
2019-05-03T23:26:35.187Z,13.20
2019-05-03T23:29:05.977Z,14.27
2019-05-03T23:31:34.451Z,14.23
2019-05-03T23:34:02.654Z,15.60
2019-05-03T23:36:33.610Z,16.50
2019-05-03T23:39:01.238Z,15.50
2019-05-03T23:41:29.384Z,16.00
2019-05-03T23:43:57.834Z,15.30
2019-05-03T23:46:30.629Z,14.13
2019-05-03T23:48:58.770Z,13.73
2019-05-03T23:51:45.339Z,15.90
2019-05-03T23:54:14.948Z,16.07
2019-05-03T23:56:45.651Z,15.47
2019-05-03T23:59:14.832Z,13.40
